Time;durP1;ratioP1;P1;durP2;ratioP2;P2;SDS_P1;SDS_P2;PMS_P1;PMS_P2;Temp;Humidity;BMP_temperature;BMP_pressure;BME280_temperature;BME280_humidity;BME280_pressure;Samples;Min_cycle;Max_cycle;Signal;HPM_P1;HPM_P2
2022/04/14 00:01:03;;;;;;;6.13;5.63;;;14.70;28.00;;;;;;10378202;28;20722;-76
2022/04/14 00:06:07;;;;;;;6.70;6.10;;;14.60;28.40;;;;;;10381049;28;20232;-76
2022/04/14 00:11:11;;;;;;;6.90;6.30;;;14.60;28.20;;;;;;10378192;28;20253;-76
2022/04/14 00:16:16;;;;;;;5.73;5.13;;;14.40;28.20;;;;;;10383369;28;20234;-76
2022/04/14 00:21:19;;;;;;;6.97;6.27;;;14.20;28.50;;;;;;10382119;28;20595;-76
2022/04/14 00:26:23;;;;;;;7.57;6.80;;;14.10;28.40;;;;;;10373416;28;20229;-76
2022/04/14 00:31:27;;;;;;;6.60;6.00;;;13.90;28.40;;;;;;10371801;28;20230;-76
2022/04/14 00:36:33;;;;;;;6.70;6.10;;;13.60;28.70;;;;;;10378007;28;20234;-76
2022/04/14 00:41:36;;;;;;;7.00;6.40;;;13.50;28.60;;;;;;10374098;28;20230;-76
2022/04/14 00:46:41;;;;;;;8.27;6.87;;;13.40;28.80;;;;;;10379046;28;20253;-76
2022/04/14 00:51:44;;;;;;;7.97;7.17;;;13.30;29.10;;;;;;10376184;28;20225;-76
2022/04/14 00:56:47;;;;;;;7.90;7.10;;;13.20;28.90;;;;;;10378071;28;20234;-76
2022/04/14 01:01:52;;;;;;;9.53;7.40;;;13.20;28.90;;;;;;10380718;28;20225;-76
2022/04/14 01:06:55;;;;;;;8.37;7.50;;;13.20;29.40;;;;;;10369465;28;20241;-76
2022/04/14 01:11:58;;;;;;;7.00;6.30;;;13.10;29.10;;;;;;10374192;28;20226;-76
2022/04/14 01:17:05;;;;;;;8.20;7.40;;;13.00;29.10;;;;;;10373072;28;20221;-75
2022/04/14 01:22:12;;;;;;;7.57;6.93;;;12.90;29.80;;;;;;10377506;28;20235;-75
2022/04/14 01:27:17;;;;;;;5.57;5.10;;;12.90;29.60;;;;;;10372298;28;20254;-75
2022/04/14 01:32:21;;;;;;;7.80;7.00;;;12.90;29.50;;;;;;10383071;28;20853;-76
2022/04/14 01:37:24;;;;;;;7.53;6.80;;;12.90;29.50;;;;;;10387558;28;20236;-75
2022/04/14 01:42:28;;;;;;;5.90;5.30;;;12.80;29.40;;;;;;10378932;28;20229;-76
2022/04/14 01:47:32;;;;;;;6.67;6.07;;;12.70;29.70;;;;;;10384147;28;20234;-75
2022/04/14 01:52:35;;;;;;;7.70;6.40;;;12.60;29.60;;;;;;10384437;28;20263;-76
2022/04/14 01:57:40;;;;;;;6.60;6.00;;;12.60;29.70;;;;;;10384364;28;20234;-75
2022/04/14 02:02:44;;;;;;;7.33;6.67;;;12.60;30.00;;;;;;10385085;28;20254;-75
2022/04/14 02:07:48;;;;;;;6.03;5.53;;;12.60;30.00;;;;;;10378355;28;20237;-75
2022/04/14 02:12:52;;;;;;;6.97;6.37;;;12.50;29.40;;;;;;10381078;28;20622;-75
2022/04/14 02:17:57;;;;;;;6.37;5.87;;;12.40;30.00;;;;;;10383286;28;20241;-75
2022/04/14 02:23:01;;;;;;;6.63;6.03;;;12.30;29.80;;;;;;10376945;28;20241;-75
2022/04/14 02:28:06;;;;;;;6.97;6.27;;;12.10;29.70;;;;;;10375642;28;20733;-75
2022/04/14 02:33:10;;;;;;;5.93;5.30;;;12.00;30.00;;;;;;10383131;28;20725;-75
2022/04/14 02:38:13;;;;;;;6.00;5.50;;;11.90;29.60;;;;;;10381026;28;20234;-75
2022/04/14 02:43:17;;;;;;;5.63;5.23;;;11.90;29.90;;;;;;10382674;28;20239;-75
2022/04/14 02:48:21;;;;;;;6.53;5.53;;;11.90;30.30;;;;;;10388026;28;20734;-75
2022/04/14 02:53:24;;;;;;;7.30;5.80;;;11.90;29.90;;;;;;10378708;28;20280;-75
2022/04/14 02:58:29;;;;;;;6.27;5.20;;;11.90;29.70;;;;;;10378048;28;20226;-75
2022/04/14 03:03:33;;;;;;;6.07;5.50;;;11.80;30.00;;;;;;10381067;28;20604;-75
2022/04/14 03:08:36;;;;;;;5.47;4.97;;;11.80;29.90;;;;;;10379263;28;20228;-75
2022/04/14 03:13:42;;;;;;;5.87;5.37;;;11.70;30.00;;;;;;10379500;28;20236;-75
2022/04/14 03:18:45;;;;;;;7.00;6.40;;;11.70;30.40;;;;;;10383897;28;20284;-75
2022/04/14 03:23:49;;;;;;;7.33;5.80;;;11.80;30.20;;;;;;10382967;28;20234;-75
2022/04/14 03:28:54;;;;;;;6.03;5.27;;;11.70;30.10;;;;;;10380211;28;20725;-75
2022/04/14 03:33:57;;;;;;;6.73;6.13;;;11.70;30.60;;;;;;10380819;28;20233;-76
2022/04/14 03:39:00;;;;;;;6.60;5.93;;;11.70;30.40;;;;;;10382048;28;20314;-75
2022/04/14 03:44:05;;;;;;;5.80;5.20;;;11.60;30.30;;;;;;10377037;28;20710;-75
2022/04/14 03:49:08;;;;;;;5.60;5.10;;;11.60;30.80;;;;;;10380878;28;20226;-75
2022/04/14 03:54:11;;;;;;;6.53;5.90;;;11.60;30.50;;;;;;10379354;28;20325;-75
2022/04/14 03:59:16;;;;;;;6.17;5.57;;;11.60;30.60;;;;;;10379089;28;20229;-75
2022/04/14 04:04:19;;;;;;;6.20;5.70;;;11.50;30.70;;;;;;10384808;28;20233;-75
2022/04/14 04:09:22;;;;;;;6.57;5.90;;;11.30;30.40;;;;;;10381447;28;20221;-75
2022/04/14 04:14:27;;;;;;;5.20;4.70;;;11.20;30.80;;;;;;10381169;28;20702;-75
2022/04/14 04:19:38;;;;;;;5.57;5.07;;;11.10;31.00;;;;;;10376160;28;20222;-75
2022/04/14 04:24:41;;;;;;;6.10;5.50;;;11.10;30.90;;;;;;10376239;28;20239;-75
2022/04/14 04:29:45;;;;;;;6.40;5.80;;;11.10;30.90;;;;;;10378559;28;20233;-75
2022/04/14 04:34:49;;;;;;;6.17;5.57;;;11.10;31.30;;;;;;10382845;28;20237;-75
2022/04/14 04:39:52;;;;;;;6.03;5.53;;;11.10;31.10;;;;;;10375338;28;20233;-75
2022/04/14 04:44:56;;;;;;;6.73;6.13;;;11.10;30.90;;;;;;10378406;28;20226;-75
2022/04/14 04:50:00;;;;;;;6.50;5.90;;;11.00;31.30;;;;;;10379642;28;20296;-75
2022/04/14 04:55:04;;;;;;;7.80;7.00;;;11.00;31.10;;;;;;10371116;28;20229;-75
2022/04/14 05:00:11;;;;;;;7.60;6.90;;;11.00;31.10;;;;;;10372847;28;20693;-75
2022/04/14 05:05:14;;;;;;;7.47;6.53;;;11.00;31.70;;;;;;10386632;28;20229;-75
2022/04/14 05:10:17;;;;;;;7.87;6.20;;;11.00;31.30;;;;;;10388972;28;20233;-75
2022/04/14 05:15:22;;;;;;;6.50;5.80;;;11.00;31.70;;;;;;10383716;28;20229;-75
2022/04/14 05:20:25;;;;;;;8.23;6.90;;;11.00;32.00;;;;;;10393900;28;20696;-75
2022/04/14 05:25:29;;;;;;;18.23;16.53;;;10.90;31.90;;;;;;10385103;28;20873;-75
2022/04/14 05:30:34;;;;;;;13.90;9.83;;;10.90;32.10;;;;;;10382427;28;20225;-75
2022/04/14 05:35:37;;;;;;;7.40;6.67;;;10.80;33.00;;;;;;10385754;28;20241;-75
2022/04/14 05:40:43;;;;;;;6.77;6.13;;;10.80;32.50;;;;;;10383359;28;20230;-75
2022/04/14 05:45:48;;;;;;;7.60;6.90;;;10.90;32.70;;;;;;10384174;28;20798;-75
2022/04/14 05:50:52;;;;;;;6.87;6.17;;;10.90;33.40;;;;;;10384363;28;20248;-75
2022/04/14 05:56:00;;;;;;;9.10;8.17;;;11.00;33.10;;;;;;10379880;28;20283;-75
2022/04/14 06:01:04;;;;;;;9.07;8.17;;;11.10;33.30;;;;;;10384296;28;20227;-75
2022/04/14 06:06:08;;;;;;;8.17;7.20;;;11.20;34.10;;;;;;10386230;28;20238;-75
2022/04/14 06:11:11;;;;;;;7.87;7.17;;;11.30;33.80;;;;;;10382569;28;20660;-75
2022/04/14 06:16:16;;;;;;;8.37;7.47;;;11.40;34.20;;;;;;10383327;28;20232;-75
2022/04/14 06:21:22;;;;;;;8.50;7.70;;;11.50;35.00;;;;;;10386189;28;20257;-75
2022/04/14 06:26:26;;;;;;;8.50;7.70;;;11.60;34.60;;;;;;10388335;28;20226;-75
2022/04/14 06:31:30;;;;;;;9.70;8.60;;;11.70;34.80;;;;;;10381075;28;20308;-75
2022/04/14 06:36:34;;;;;;;9.23;8.30;;;11.90;35.70;;;;;;10377524;28;20799;-75
2022/04/14 06:41:37;;;;;;;9.47;8.60;;;12.10;35.50;;;;;;10380513;28;20233;-75
2022/04/14 06:46:41;;;;;;;8.53;7.73;;;12.20;35.60;;;;;;10381367;28;20230;-75
2022/04/14 06:51:44;;;;;;;8.20;7.50;;;12.40;36.30;;;;;;10379432;28;20218;-75
2022/04/14 06:56:47;;;;;;;9.67;7.60;;;12.60;35.80;;;;;;10382635;28;20237;-74
2022/04/14 07:01:52;;;;;;;9.23;8.33;;;12.80;35.70;;;;;;10384285;28;20868;-74
2022/04/14 07:06:55;;;;;;;8.90;8.10;;;13.00;36.50;;;;;;10374856;28;20226;-74
2022/04/14 07:11:59;;;;;;;9.47;8.50;;;13.20;36.00;;;;;;10380097;28;20234;-75
2022/04/14 07:17:04;;;;;;;8.80;8.00;;;13.40;36.10;;;;;;10376910;28;20232;-75
2022/04/14 07:22:07;;;;;;;8.93;8.23;;;13.60;37.00;;;;;;10381835;28;20713;-75
2022/04/14 07:27:11;;;;;;;8.60;7.80;;;13.90;36.30;;;;;;10379640;28;20233;-75
2022/04/14 07:32:16;;;;;;;9.30;8.40;;;14.20;36.40;;;;;;10376362;28;20229;-75
2022/04/14 07:37:19;;;;;;;8.60;7.80;;;14.40;37.40;;;;;;10376011;28;20246;-75
2022/04/14 07:42:22;;;;;;;8.03;7.43;;;14.80;36.70;;;;;;10381590;28;20237;-76
2022/04/14 07:47:27;;;;;;;8.67;7.93;;;15.10;36.30;;;;;;10378069;28;20229;-76
2022/04/14 07:52:30;;;;;;;8.17;7.50;;;15.40;36.70;;;;;;10381905;28;20237;-76
2022/04/14 07:57:33;;;;;;;9.43;7.80;;;15.60;36.10;;;;;;10375747;28;20230;-76
2022/04/14 08:02:47;;;;;;;8.83;7.37;;;15.90;36.00;;;;;;10385258;28;20226;-76
2022/04/14 08:07:50;;;;;;;8.67;7.90;;;16.20;36.90;;;;;;10377593;28;20236;-76
2022/04/14 08:12:53;;;;;;;8.13;7.43;;;16.40;36.00;;;;;;10378688;28;20226;-76
2022/04/14 08:17:58;;;;;;;8.00;7.30;;;16.70;36.00;;;;;;10377795;28;20234;-76
2022/04/14 08:23:03;;;;;;;7.87;7.13;;;16.90;36.00;;;;;;10374030;28;20227;-74
2022/04/14 08:28:08;;;;;;;8.03;7.27;;;17.20;35.90;;;;;;10381730;28;20222;-75
2022/04/14 08:33:14;;;;;;;8.20;7.50;;;17.50;35.80;;;;;;10375091;28;20230;-76
2022/04/14 08:38:17;;;;;;;9.77;6.93;;;17.80;35.90;;;;;;10372022;28;20736;-76
2022/04/14 08:43:28;;;;;;;8.37;7.57;;;18.10;35.40;;;;;;10373183;28;20226;-76
2022/04/14 08:48:36;;;;;;;7.80;7.10;;;18.50;35.40;;;;;;10374713;28;20242;-76
2022/04/14 08:53:40;;;;;;;7.10;6.37;;;18.80;35.10;;;;;;10376436;28;20221;-76
2022/04/14 08:58:44;;;;;;;6.27;5.77;;;19.10;34.40;;;;;;10377019;28;20395;-76
2022/04/14 09:03:49;;;;;;;6.50;5.47;;;19.40;33.90;;;;;;10383008;28;20221;-76
2022/04/14 09:08:52;;;;;;;6.40;5.80;;;19.70;33.40;;;;;;10376659;28;20226;-76
2022/04/14 09:13:56;;;;;;;6.20;5.70;;;20.10;33.20;;;;;;10376699;28;20599;-76
2022/04/14 09:19:02;;;;;;;6.17;5.67;;;20.30;32.50;;;;;;10376356;28;20729;-76
2022/04/14 09:24:05;;;;;;;5.27;4.77;;;20.60;32.20;;;;;;10371716;28;20230;-76
2022/04/14 09:29:10;;;;;;;5.50;5.00;;;20.90;32.30;;;;;;10375378;28;20257;-76
2022/04/14 09:34:18;;;;;;;5.53;5.03;;;21.20;31.20;;;;;;10374397;28;20991;-76
2022/04/14 09:39:22;;;;;;;5.57;4.67;;;21.40;30.50;;;;;;10374111;28;20268;-76
2022/04/14 09:44:25;;;;;;;5.73;4.80;;;21.60;30.80;;;;;;10376238;28;20229;-76
2022/04/14 09:49:29;;;;;;;5.97;5.17;;;21.80;30.60;;;;;;10377804;28;20233;-76
2022/04/14 09:54:32;;;;;;;5.87;4.83;;;22.00;29.80;;;;;;10379933;28;20234;-76
2022/04/14 09:59:38;;;;;;;6.10;5.60;;;22.20;30.10;;;;;;10379733;28;20218;-76
2022/04/14 10:04:44;;;;;;;5.70;5.10;;;22.40;29.20;;;;;;10382301;28;20230;-76
2022/04/14 10:09:48;;;;;;;5.37;4.93;;;22.50;29.10;;;;;;10382736;28;20232;-76
2022/04/14 10:15:04;;;;;;;5.57;5.07;;;22.70;29.40;;;;;;10381237;28;20237;-76
2022/04/14 10:20:12;;;;;;;5.70;4.80;;;22.90;28.80;;;;;;10376886;28;20221;-76
2022/04/14 10:25:17;;;;;;;5.53;5.03;;;23.10;28.80;;;;;;10375890;28;20709;-76
2022/04/14 10:30:20;;;;;;;6.00;5.40;;;23.20;29.00;;;;;;10382329;28;20691;-76
2022/04/14 10:35:26;;;;;;;7.87;5.13;;;23.40;29.10;;;;;;10381556;28;20225;-76
2022/04/14 10:40:32;;;;;;;6.03;5.20;;;23.50;28.60;;;;;;10379021;28;20226;-76
2022/04/14 10:45:48;;;;;;;6.60;5.57;;;23.70;28.60;;;;;;10381359;28;20234;-76
2022/04/14 10:51:20;;;;;;;6.60;6.00;;;23.90;27.40;;;;;;10380641;28;20495;-76
2022/04/14 10:56:46;;;;;;;6.47;5.87;;;24.00;27.60;;;;;;10379185;28;20596;-77
2022/04/14 11:02:02;;;;;;;7.33;5.77;;;24.10;28.10;;;;;;10378982;28;20229;-76
2022/04/14 11:07:12;;;;;;;8.13;5.97;;;24.00;27.20;;;;;;10378028;28;20233;-76
2022/04/14 11:12:18;;;;;;;7.33;6.53;;;24.10;26.80;;;;;;10374142;28;20233;-76
2022/04/14 11:17:57;;;;;;;6.53;5.63;;;24.10;27.80;;;;;;10377736;28;20258;-77
2022/04/14 11:23:07;;;;;;;6.77;5.93;;;24.10;28.10;;;;;;10381454;28;20221;-76
2022/04/14 11:28:21;;;;;;;6.07;5.47;;;24.20;25.70;;;;;;10377985;28;20230;-76
2022/04/14 11:33:38;;;;;;;7.37;6.00;;;24.20;26.80;;;;;;10380023;28;20221;-76
2022/04/14 11:38:53;;;;;;;6.77;5.93;;;24.30;26.40;;;;;;10379741;28;20232;-76
2022/04/14 11:43:56;;;;;;;6.43;5.83;;;24.30;26.10;;;;;;10377231;28;20229;-76
2022/04/14 11:49:01;;;;;;;7.20;6.00;;;24.30;27.00;;;;;;10375989;28;20229;-76
2022/04/14 11:54:08;;;;;;;6.67;5.97;;;24.20;26.40;;;;;;10379821;28;20230;-76
2022/04/14 11:59:33;;;;;;;6.90;6.27;;;24.20;26.60;;;;;;10378094;28;20226;-76
2022/04/14 12:04:38;;;;;;;7.00;6.23;;;24.30;26.70;;;;;;10375936;28;20686;-76
2022/04/14 12:09:43;;;;;;;6.90;6.20;;;24.30;26.60;;;;;;10379035;28;20222;-76
2022/04/14 12:14:47;;;;;;;6.93;6.33;;;24.40;26.50;;;;;;10375285;28;20232;-76
2022/04/14 12:19:53;;;;;;;7.33;6.73;;;24.40;26.20;;;;;;10379724;28;20217;-76
2022/04/14 12:24:59;;;;;;;7.43;6.10;;;24.50;26.00;;;;;;10377947;28;20638;-76
2022/04/14 12:30:06;;;;;;;6.53;5.63;;;24.60;26.10;;;;;;10374334;28;20713;-75
2022/04/14 12:35:11;;;;;;;7.10;6.07;;;24.70;25.70;;;;;;10372988;28;20291;-76
2022/04/14 12:40:21;;;;;;;6.30;5.70;;;24.70;25.40;;;;;;10374924;28;20323;-76
2022/04/14 12:45:25;;;;;;;7.10;6.17;;;24.80;25.20;;;;;;10374053;28;20716;-76
2022/04/14 12:50:28;;;;;;;6.33;5.63;;;24.80;25.30;;;;;;10376320;28;20709;-76
2022/04/14 12:55:32;;;;;;;6.93;6.13;;;24.80;25.10;;;;;;10370499;28;20353;-76
2022/04/14 13:00:36;;;;;;;6.33;5.73;;;24.80;24.30;;;;;;10371803;28;20222;-76
2022/04/14 13:05:39;;;;;;;6.60;5.97;;;24.80;25.00;;;;;;10377495;28;20738;-76
2022/04/14 13:10:45;;;;;;;5.37;4.87;;;24.90;25.30;;;;;;10374766;28;20230;-76
2022/04/14 13:15:52;;;;;;;6.50;5.80;;;24.90;24.30;;;;;;10374790;28;20258;-76
2022/04/14 13:20:55;;;;;;;7.63;6.53;;;25.00;24.20;;;;;;10376452;28;20226;-76
2022/04/14 13:26:01;;;;;;;5.90;5.30;;;25.00;24.70;;;;;;10380349;28;20238;-77
2022/04/14 13:31:04;;;;;;;6.43;4.80;;;25.00;24.70;;;;;;10378069;28;20622;-76
2022/04/14 13:36:07;;;;;;;5.10;4.70;;;25.00;24.90;;;;;;10389276;28;20608;-76
2022/04/14 13:41:13;;;;;;;5.03;4.57;;;25.10;24.70;;;;;;10382961;28;20225;-76
2022/04/14 13:46:16;;;;;;;5.90;4.10;;;25.20;24.30;;;;;;10387569;28;20749;-76
2022/04/14 13:51:20;;;;;;;4.43;4.10;;;25.20;24.00;;;;;;10384489;28;20222;-76
2022/04/14 13:56:30;;;;;;;5.47;4.93;;;25.30;24.00;;;;;;10376805;28;20238;-76
2022/04/14 14:01:33;;;;;;;5.40;4.90;;;25.30;23.50;;;;;;10381099;28;20233;-77
2022/04/14 14:06:36;;;;;;;5.63;4.50;;;25.30;23.40;;;;;;10386433;28;20703;-77
2022/04/14 14:11:41;;;;;;;4.97;4.47;;;25.30;23.70;;;;;;10381115;28;20733;-77
2022/04/14 14:16:44;;;;;;;5.20;4.70;;;25.40;23.70;;;;;;10380530;28;20232;-77
2022/04/14 14:21:48;;;;;;;5.20;4.03;;;25.40;23.60;;;;;;10378658;28;20226;-77
2022/04/14 14:26:54;;;;;;;3.97;3.67;;;25.40;23.80;;;;;;10375886;28;20234;-77
2022/04/14 14:31:57;;;;;;;4.70;4.30;;;25.50;23.50;;;;;;10383860;28;20234;-77
2022/04/14 14:37:01;;;;;;;4.60;3.90;;;25.50;24.00;;;;;;10375103;28;20225;-77
2022/04/14 14:42:07;;;;;;;4.73;4.30;;;25.60;23.40;;;;;;10378704;28;20778;-76
2022/04/14 14:47:11;;;;;;;5.27;4.77;;;25.70;23.00;;;;;;10384762;28;20232;-76
2022/04/14 14:52:14;;;;;;;4.80;4.40;;;25.70;23.10;;;;;;10378903;28;20244;-76
2022/04/14 14:57:19;;;;;;;4.90;4.40;;;25.70;23.00;;;;;;10378821;28;20240;-77
2022/04/14 15:02:22;;;;;;;4.30;3.90;;;25.70;22.70;;;;;;10381441;28;20229;-76
2022/04/14 15:07:25;;;;;;;3.93;3.63;;;25.80;23.10;;;;;;10381092;28;20575;-77
2022/04/14 15:12:30;;;;;;;3.70;3.40;;;25.80;23.00;;;;;;10378681;28;20713;-77
2022/04/14 15:17:33;;;;;;;3.63;3.27;;;25.80;22.00;;;;;;10374138;28;20234;-77
2022/04/14 15:22:36;;;;;;;5.13;4.00;;;25.80;22.30;;;;;;10378018;28;20229;-77
2022/04/14 15:27:41;;;;;;;3.60;3.30;;;25.80;22.20;;;;;;10373322;28;20230;-77
2022/04/14 15:32:44;;;;;;;3.73;3.27;;;25.80;22.00;;;;;;10375247;28;20223;-77
2022/04/14 15:37:47;;;;;;;3.50;3.20;;;25.80;22.30;;;;;;10374366;28;20340;-77
2022/04/14 15:42:52;;;;;;;3.40;2.57;;;25.80;21.80;;;;;;10377884;28;20237;-77
2022/04/14 15:47:55;;;;;;;4.17;3.53;;;25.70;21.20;;;;;;10377729;28;20230;-77
2022/04/14 15:52:58;;;;;;;3.37;3.07;;;25.70;21.30;;;;;;10381258;28;20230;-77
2022/04/14 15:58:03;;;;;;;3.37;2.93;;;25.70;21.30;;;;;;10376104;28;20330;-76
2022/04/14 16:03:06;;;;;;;3.43;3.13;;;25.60;20.70;;;;;;10376605;28;20222;-76
2022/04/14 16:08:10;;;;;;;3.67;2.87;;;25.60;20.90;;;;;;10373461;28;20321;-76
2022/04/14 16:13:16;;;;;;;3.00;2.80;;;25.60;20.90;;;;;;10376948;28;20217;-77
2022/04/14 16:18:21;;;;;;;3.13;2.83;;;25.60;20.20;;;;;;10375978;28;20218;-77
2022/04/14 16:23:24;;;;;;;3.20;2.90;;;25.50;20.20;;;;;;10381079;28;20694;-77
2022/04/14 16:28:29;;;;;;;3.40;2.73;;;25.40;20.20;;;;;;10376892;28;20230;-77
2022/04/14 16:33:32;;;;;;;3.73;2.97;;;25.40;19.60;;;;;;10377351;28;20226;-77
2022/04/14 16:38:35;;;;;;;4.20;2.70;;;25.30;19.70;;;;;;10376917;28;20233;-77
2022/04/14 16:43:40;;;;;;;2.43;2.23;;;25.20;19.80;;;;;;10376728;28;20226;-77
2022/04/14 16:48:45;;;;;;;3.20;2.47;;;25.10;19.70;;;;;;10375195;28;20223;-77
2022/04/14 16:53:48;;;;;;;2.50;2.30;;;25.10;20.00;;;;;;10376540;28;20234;-77
2022/04/14 16:58:53;;;;;;;2.53;2.17;;;25.10;20.10;;;;;;10377021;28;20222;-77
2022/04/14 17:03:56;;;;;;;2.53;2.27;;;25.00;19.80;;;;;;10383925;28;20234;-77
2022/04/14 17:08:59;;;;;;;2.63;2.43;;;25.00;20.30;;;;;;10383812;28;20237;-77
2022/04/14 17:14:04;;;;;;;2.73;2.50;;;25.00;20.10;;;;;;10387238;28;20229;-76
2022/04/14 17:19:08;;;;;;;2.40;2.20;;;25.00;20.00;;;;;;10385910;28;20261;-76
2022/04/14 17:24:21;;;;;;;2.60;2.40;;;25.00;20.20;;;;;;10390244;28;20256;-77
2022/04/14 17:29:25;;;;;;;2.60;2.40;;;24.90;20.20;;;;;;10385127;28;20240;-77
2022/04/14 17:34:30;;;;;;;3.03;2.70;;;24.90;20.00;;;;;;10379494;28;20636;-77
2022/04/14 17:39:33;;;;;;;3.83;2.53;;;24.80;20.20;;;;;;10381018;28;20261;-77
2022/04/14 17:44:38;;;;;;;4.43;2.80;;;24.70;20.20;;;;;;10380927;28;20244;-77
2022/04/14 17:49:41;;;;;;;2.47;2.27;;;24.60;19.90;;;;;;10384034;28;20244;-77
2022/04/14 17:54:46;;;;;;;4.40;2.60;;;24.50;20.10;;;;;;10385197;28;20229;-77
2022/04/14 17:59:50;;;;;;;2.90;2.53;;;24.40;20.20;;;;;;10384537;28;20229;-78
2022/04/14 18:04:53;;;;;;;2.80;2.60;;;24.20;20.00;;;;;;10382016;28;20229;-77
2022/04/14 18:09:57;;;;;;;3.13;2.83;;;24.10;20.20;;;;;;10378669;28;20226;-77
2022/04/14 18:15:02;;;;;;;3.47;2.63;;;23.90;20.20;;;;;;10383508;28;20226;-77
2022/04/14 18:20:09;;;;;;;3.47;2.90;;;23.80;20.20;;;;;;10385806;28;20220;-77
2022/04/14 18:25:13;;;;;;;3.47;3.17;;;23.70;20.30;;;;;;10386413;28;20238;-77
2022/04/14 18:30:18;;;;;;;2.93;2.70;;;23.50;20.50;;;;;;10385132;28;20856;-77
2022/04/14 18:35:21;;;;;;;3.10;2.80;;;23.50;20.60;;;;;;10383547;28;20222;-77
2022/04/14 18:40:25;;;;;;;3.13;2.83;;;23.30;20.60;;;;;;10374893;28;20232;-77
2022/04/14 18:45:29;;;;;;;3.37;3.07;;;23.20;20.70;;;;;;10385010;28;20225;-77
2022/04/14 18:50:32;;;;;;;3.00;2.70;;;23.10;20.80;;;;;;10382605;28;20732;-77
2022/04/14 18:55:36;;;;;;;4.10;2.70;;;22.90;20.90;;;;;;10382429;28;20744;-78
2022/04/14 19:00:40;;;;;;;3.00;2.80;;;22.90;21.00;;;;;;10380387;28;20576;-77
2022/04/14 19:05:43;;;;;;;5.57;2.90;;;22.80;21.20;;;;;;10381006;28;20222;-77
2022/04/14 19:10:47;;;;;;;3.30;3.00;;;22.70;21.20;;;;;;10379846;28;20234;-77
2022/04/14 19:15:51;;;;;;;3.20;2.90;;;22.60;21.30;;;;;;10378837;28;20242;-77
2022/04/14 19:20:55;;;;;;;3.27;2.97;;;22.50;21.40;;;;;;10381719;28;20237;-77
2022/04/14 19:25:58;;;;;;;3.50;3.20;;;22.40;21.50;;;;;;10381399;28;20222;-77
2022/04/14 19:31:02;;;;;;;3.80;3.30;;;22.30;21.70;;;;;;10378062;28;20603;-77
2022/04/14 19:36:09;;;;;;;4.77;3.23;;;22.30;21.80;;;;;;10378259;28;20230;-77
2022/04/14 19:41:12;;;;;;;4.90;3.77;;;22.10;21.90;;;;;;10376663;28;20226;-77
2022/04/14 19:46:17;;;;;;;4.17;3.30;;;21.90;22.10;;;;;;10385337;28;20237;-77
2022/04/14 19:51:20;;;;;;;5.40;3.50;;;21.80;22.90;;;;;;10384182;28;20860;-77
2022/04/14 19:56:23;;;;;;;3.63;3.33;;;21.70;22.40;;;;;;10376400;28;20236;-77
2022/04/14 20:01:28;;;;;;;5.90;4.00;;;21.60;22.40;;;;;;10379836;28;20614;-77
2022/04/14 20:06:31;;;;;;;4.83;3.90;;;21.40;22.70;;;;;;10382309;28;20232;-77
2022/04/14 20:11:34;;;;;;;3.60;3.30;;;21.20;22.80;;;;;;10380168;28;20229;-77
2022/04/14 20:16:39;;;;;;;4.57;4.13;;;21.00;22.70;;;;;;10376470;28;20226;-77
2022/04/14 20:21:42;;;;;;;4.77;4.00;;;20.90;23.30;;;;;;10378332;28;20744;-77
2022/04/14 20:26:45;;;;;;;5.10;4.60;;;20.80;23.30;;;;;;10380055;28;20222;-77
2022/04/14 20:31:50;;;;;;;4.67;4.27;;;20.60;23.40;;;;;;10377319;28;20226;-77
2022/04/14 20:36:54;;;;;;;5.13;4.63;;;20.50;23.60;;;;;;10377065;28;20234;-77
2022/04/14 20:41:57;;;;;;;4.87;4.37;;;20.40;23.70;;;;;;10380193;28;20656;-78
2022/04/14 20:47:02;;;;;;;6.40;4.80;;;20.40;23.80;;;;;;10382273;28;20233;-77
2022/04/14 20:52:06;;;;;;;5.63;4.80;;;20.30;24.20;;;;;;10376958;28;20213;-76
2022/04/14 20:57:09;;;;;;;5.57;5.07;;;20.20;24.00;;;;;;10375892;28;20234;-77
2022/04/14 21:02:13;;;;;;;6.50;5.10;;;20.10;24.10;;;;;;10373380;28;20222;-76
2022/04/14 21:07:17;;;;;;;5.63;4.83;;;19.90;24.50;;;;;;10377565;28;20234;-78
2022/04/14 21:12:21;;;;;;;5.20;4.80;;;19.80;24.50;;;;;;10375798;28;20598;-77
2022/04/14 21:17:25;;;;;;;4.97;4.50;;;19.60;24.60;;;;;;10372413;28;20780;-77
2022/04/14 21:22:28;;;;;;;5.43;4.93;;;19.50;25.00;;;;;;10378408;28;20728;-77
2022/04/14 21:27:32;;;;;;;7.03;5.50;;;19.50;25.00;;;;;;10369504;28;20600;-76
2022/04/14 21:32:36;;;;;;;5.50;5.00;;;19.40;24.90;;;;;;10374455;28;20237;-77
2022/04/14 21:37:40;;;;;;;5.97;5.30;;;19.40;25.00;;;;;;10374268;28;20223;-77
2022/04/14 21:42:43;;;;;;;5.57;5.07;;;19.30;24.80;;;;;;10373817;28;20218;-77
2022/04/14 21:47:50;;;;;;;8.73;5.20;;;19.30;24.90;;;;;;10381756;28;20261;-77
2022/04/14 21:52:55;;;;;;;5.87;5.40;;;19.10;25.60;;;;;;10381920;28;20232;-77
2022/04/14 21:57:58;;;;;;;5.73;5.23;;;19.00;25.60;;;;;;10380766;28;20254;-77
2022/04/14 22:03:02;;;;;;;6.37;5.80;;;19.00;25.70;;;;;;10388069;28;20222;-77
2022/04/14 22:08:07;;;;;;;6.17;5.67;;;19.00;26.30;;;;;;10385346;28;20222;-76
2022/04/14 22:13:10;;;;;;;6.17;5.07;;;19.00;26.20;;;;;;10382472;28;20714;-77
2022/04/14 22:18:15;;;;;;;6.27;5.67;;;19.00;26.30;;;;;;10387617;28;20222;-77
2022/04/14 22:23:18;;;;;;;6.20;5.60;;;19.10;26.80;;;;;;10383024;28;20226;-77
2022/04/14 22:28:21;;;;;;;6.00;5.47;;;19.20;26.60;;;;;;10380510;28;20234;-77
2022/04/14 22:33:26;;;;;;;5.57;5.07;;;19.20;26.50;;;;;;10386045;28;20700;-77
2022/04/14 22:38:29;;;;;;;6.10;5.50;;;19.10;26.70;;;;;;10385629;28;20874;-77
2022/04/14 22:43:32;;;;;;;7.17;5.70;;;19.20;26.90;;;;;;10381525;28;20222;-77
2022/04/14 22:48:36;;;;;;;6.80;5.83;;;19.20;26.90;;;;;;10380937;28;20227;-77
2022/04/14 22:53:42;;;;;;;6.27;5.70;;;19.20;27.30;;;;;;10385000;28;20231;-77
2022/04/14 22:58:45;;;;;;;6.07;5.57;;;19.20;27.40;;;;;;10379797;28;20233;-77
2022/04/14 23:03:50;;;;;;;5.87;5.37;;;19.20;27.20;;;;;;10383253;28;20234;-77
2022/04/14 23:08:53;;;;;;;6.70;6.20;;;19.20;27.60;;;;;;10381632;28;20248;-77
2022/04/14 23:13:56;;;;;;;7.37;6.80;;;19.30;27.40;;;;;;10380080;28;20487;-77
2022/04/14 23:19:08;;;;;;;7.30;6.70;;;19.30;27.60;;;;;;10382773;28;20596;-76
2022/04/14 23:24:12;;;;;;;8.20;7.60;;;19.30;28.00;;;;;;10381671;28;20242;-76
2022/04/14 23:29:15;;;;;;;8.33;7.73;;;19.20;27.60;;;;;;10383427;28;20230;-76
2022/04/14 23:34:20;;;;;;;8.90;8.20;;;19.20;27.70;;;;;;10385762;28;20234;-76
2022/04/14 23:39:57;;;;;;;8.50;7.90;;;19.10;28.20;;;;;;10381196;28;20923;-77
2022/04/14 23:45:00;;;;;;;8.60;7.90;;;19.10;27.90;;;;;;10378463;28;20234;-77
2022/04/14 23:50:05;;;;;;;6.73;6.17;;;19.10;28.00;;;;;;10376264;28;20232;-76
2022/04/14 23:55:09;;;;;;;8.77;7.93;;;19.10;28.30;;;;;;10376590;28;20222;-76
